sensor_id;sensor_type;location;lat;lon;timestamp;P1;durP1;ratioP1;P2;durP2;ratioP2
6626;SDS011;3349;49.830;8.748;2022-11-20T00:00:39;29.27;;;18.73;;
6626;SDS011;3349;49.830;8.748;2022-11-20T00:03:06;30.60;;;18.97;;
6626;SDS011;3349;49.830;8.748;2022-11-20T00:05:34;30.40;;;18.27;;
6626;SDS011;3349;49.830;8.748;2022-11-20T00:08:01;27.77;;;17.60;;
6626;SDS011;3349;49.830;8.748;2022-11-20T00:10:28;31.20;;;18.80;;
6626;SDS011;3349;49.830;8.748;2022-11-20T00:12:55;26.27;;;17.03;;
6626;SDS011;3349;49.830;8.748;2022-11-20T00:15:23;26.50;;;16.80;;
6626;SDS011;3349;49.830;8.748;2022-11-20T00:17:50;28.83;;;18.17;;
6626;SDS011;3349;49.830;8.748;2022-11-20T00:20:17;25.63;;;17.37;;
6626;SDS011;3349;49.830;8.748;2022-11-20T00:22:45;25.77;;;17.07;;
6626;SDS011;3349;49.830;8.748;2022-11-20T00:25:12;26.63;;;17.67;;
6626;SDS011;3349;49.830;8.748;2022-11-20T00:27:39;23.80;;;16.93;;
6626;SDS011;3349;49.830;8.748;2022-11-20T00:30:06;27.50;;;18.23;;
6626;SDS011;3349;49.830;8.748;2022-11-20T00:32:33;27.07;;;17.33;;
6626;SDS011;3349;49.830;8.748;2022-11-20T00:35:00;30.27;;;19.33;;
6626;SDS011;3349;49.830;8.748;2022-11-20T00:37:27;32.33;;;19.00;;
6626;SDS011;3349;49.830;8.748;2022-11-20T00:39:55;29.97;;;18.40;;
6626;SDS011;3349;49.830;8.748;2022-11-20T00:42:22;31.53;;;17.13;;
6626;SDS011;3349;49.830;8.748;2022-11-20T00:44:49;25.97;;;16.67;;
6626;SDS011;3349;49.830;8.748;2022-11-20T00:47:15;26.57;;;17.73;;
6626;SDS011;3349;49.830;8.748;2022-11-20T00:49:42;27.63;;;17.07;;
6626;SDS011;3349;49.830;8.748;2022-11-20T00:52:09;28.03;;;17.33;;
6626;SDS011;3349;49.830;8.748;2022-11-20T00:54:36;28.30;;;17.00;;
6626;SDS011;3349;49.830;8.748;2022-11-20T00:57:04;22.10;;;15.30;;
6626;SDS011;3349;49.830;8.748;2022-11-20T00:59:31;22.07;;;14.53;;
6626;SDS011;3349;49.830;8.748;2022-11-20T01:01:57;23.03;;;15.20;;
6626;SDS011;3349;49.830;8.748;2022-11-20T01:04:24;23.03;;;15.07;;
6626;SDS011;3349;49.830;8.748;2022-11-20T01:06:51;21.93;;;14.30;;
6626;SDS011;3349;49.830;8.748;2022-11-20T01:09:18;20.47;;;14.53;;
6626;SDS011;3349;49.830;8.748;2022-11-20T01:11:45;21.40;;;13.63;;
6626;SDS011;3349;49.830;8.748;2022-11-20T01:14:14;21.90;;;14.77;;
6626;SDS011;3349;49.830;8.748;2022-11-20T01:16:42;22.03;;;14.87;;
6626;SDS011;3349;49.830;8.748;2022-11-20T01:19:12;21.17;;;14.30;;
6626;SDS011;3349;49.830;8.748;2022-11-20T01:21:42;21.97;;;14.87;;
6626;SDS011;3349;49.830;8.748;2022-11-20T01:24:10;19.03;;;13.30;;
6626;SDS011;3349;49.830;8.748;2022-11-20T01:26:40;19.57;;;13.50;;
6626;SDS011;3349;49.830;8.748;2022-11-20T01:29:08;20.23;;;14.07;;
6626;SDS011;3349;49.830;8.748;2022-11-20T01:31:40;23.17;;;14.47;;
6626;SDS011;3349;49.830;8.748;2022-11-20T01:34:10;23.93;;;15.80;;
6626;SDS011;3349;49.830;8.748;2022-11-20T01:36:38;23.60;;;15.73;;
6626;SDS011;3349;49.830;8.748;2022-11-20T01:39:06;22.97;;;16.03;;
6626;SDS011;3349;49.830;8.748;2022-11-20T01:41:35;21.77;;;15.43;;
6626;SDS011;3349;49.830;8.748;2022-11-20T01:44:39;22.27;;;15.33;;
6626;SDS011;3349;49.830;8.748;2022-11-20T01:47:17;23.17;;;15.47;;
6626;SDS011;3349;49.830;8.748;2022-11-20T01:49:49;19.60;;;13.53;;
6626;SDS011;3349;49.830;8.748;2022-11-20T01:52:19;18.33;;;13.23;;
6626;SDS011;3349;49.830;8.748;2022-11-20T01:54:49;21.23;;;14.57;;
6626;SDS011;3349;49.830;8.748;2022-11-20T01:57:20;16.73;;;12.07;;
6626;SDS011;3349;49.830;8.748;2022-11-20T01:59:50;18.43;;;13.37;;
6626;SDS011;3349;49.830;8.748;2022-11-20T02:02:24;19.40;;;13.13;;
6626;SDS011;3349;49.830;8.748;2022-11-20T02:04:51;18.00;;;12.97;;
6626;SDS011;3349;49.830;8.748;2022-11-20T02:07:23;20.20;;;13.30;;
6626;SDS011;3349;49.830;8.748;2022-11-20T02:09:50;19.30;;;13.17;;
6626;SDS011;3349;49.830;8.748;2022-11-20T02:12:17;18.93;;;12.60;;
6626;SDS011;3349;49.830;8.748;2022-11-20T02:14:58;18.40;;;12.73;;
6626;SDS011;3349;49.830;8.748;2022-11-20T02:17:26;18.43;;;12.87;;
6626;SDS011;3349;49.830;8.748;2022-11-20T02:19:53;20.50;;;13.33;;
6626;SDS011;3349;49.830;8.748;2022-11-20T02:22:21;21.80;;;13.10;;
6626;SDS011;3349;49.830;8.748;2022-11-20T02:24:54;19.97;;;11.80;;
6626;SDS011;3349;49.830;8.748;2022-11-20T02:27:21;16.77;;;11.53;;
6626;SDS011;3349;49.830;8.748;2022-11-20T02:29:49;16.20;;;11.20;;
6626;SDS011;3349;49.830;8.748;2022-11-20T02:32:18;15.17;;;10.63;;
6626;SDS011;3349;49.830;8.748;2022-11-20T02:34:46;13.03;;;9.67;;
6626;SDS011;3349;49.830;8.748;2022-11-20T02:37:13;15.67;;;10.40;;
6626;SDS011;3349;49.830;8.748;2022-11-20T02:39:40;15.43;;;10.53;;
6626;SDS011;3349;49.830;8.748;2022-11-20T02:42:10;12.87;;;9.27;;
6626;SDS011;3349;49.830;8.748;2022-11-20T02:44:37;15.20;;;10.43;;
6626;SDS011;3349;49.830;8.748;2022-11-20T02:47:04;14.67;;;10.40;;
6626;SDS011;3349;49.830;8.748;2022-11-20T02:49:31;14.63;;;10.00;;
6626;SDS011;3349;49.830;8.748;2022-11-20T02:51:58;14.17;;;9.53;;
6626;SDS011;3349;49.830;8.748;2022-11-20T02:54:25;15.13;;;10.07;;
6626;SDS011;3349;49.830;8.748;2022-11-20T02:56:52;16.10;;;10.70;;
6626;SDS011;3349;49.830;8.748;2022-11-20T02:59:20;15.53;;;10.30;;
6626;SDS011;3349;49.830;8.748;2022-11-20T03:01:47;17.53;;;11.77;;
6626;SDS011;3349;49.830;8.748;2022-11-20T03:04:14;16.50;;;10.03;;
6626;SDS011;3349;49.830;8.748;2022-11-20T03:06:40;17.37;;;11.70;;
6626;SDS011;3349;49.830;8.748;2022-11-20T03:09:07;19.27;;;12.03;;
6626;SDS011;3349;49.830;8.748;2022-11-20T03:11:34;19.47;;;12.33;;
6626;SDS011;3349;49.830;8.748;2022-11-20T03:14:01;29.83;;;11.70;;
6626;SDS011;3349;49.830;8.748;2022-11-20T03:16:30;40.63;;;13.63;;
6626;SDS011;3349;49.830;8.748;2022-11-20T03:18:57;23.50;;;13.20;;
6626;SDS011;3349;49.830;8.748;2022-11-20T03:21:25;26.33;;;13.73;;
6626;SDS011;3349;49.830;8.748;2022-11-20T03:23:52;39.87;;;14.87;;
6626;SDS011;3349;49.830;8.748;2022-11-20T03:26:20;38.93;;;14.77;;
6626;SDS011;3349;49.830;8.748;2022-11-20T03:28:49;28.17;;;14.03;;
6626;SDS011;3349;49.830;8.748;2022-11-20T03:31:17;50.60;;;15.70;;
6626;SDS011;3349;49.830;8.748;2022-11-20T03:33:47;46.73;;;14.83;;
6626;SDS011;3349;49.830;8.748;2022-11-20T03:36:15;53.40;;;15.77;;
6626;SDS011;3349;49.830;8.748;2022-11-20T03:38:43;86.67;;;16.23;;
6626;SDS011;3349;49.830;8.748;2022-11-20T03:41:11;36.83;;;15.50;;
6626;SDS011;3349;49.830;8.748;2022-11-20T03:43:38;36.73;;;16.37;;
6626;SDS011;3349;49.830;8.748;2022-11-20T03:46:05;61.90;;;16.60;;
6626;SDS011;3349;49.830;8.748;2022-11-20T03:48:33;49.50;;;16.90;;
6626;SDS011;3349;49.830;8.748;2022-11-20T03:51:07;61.50;;;16.40;;
6626;SDS011;3349;49.830;8.748;2022-11-20T03:53:36;54.47;;;15.57;;
6626;SDS011;3349;49.830;8.748;2022-11-20T03:56:02;66.57;;;15.80;;
6626;SDS011;3349;49.830;8.748;2022-11-20T03:58:30;30.30;;;15.47;;
6626;SDS011;3349;49.830;8.748;2022-11-20T04:00:56;33.43;;;15.77;;
6626;SDS011;3349;49.830;8.748;2022-11-20T04:03:23;79.97;;;17.07;;
6626;SDS011;3349;49.830;8.748;2022-11-20T04:05:50;55.47;;;17.13;;
6626;SDS011;3349;49.830;8.748;2022-11-20T04:08:18;45.50;;;16.33;;
6626;SDS011;3349;49.830;8.748;2022-11-20T04:10:44;49.30;;;16.43;;
6626;SDS011;3349;49.830;8.748;2022-11-20T04:13:11;66.47;;;17.13;;
6626;SDS011;3349;49.830;8.748;2022-11-20T04:15:38;58.03;;;18.37;;
6626;SDS011;3349;49.830;8.748;2022-11-20T04:18:05;45.47;;;18.03;;
6626;SDS011;3349;49.830;8.748;2022-11-20T04:20:31;80.57;;;18.63;;
6626;SDS011;3349;49.830;8.748;2022-11-20T04:22:58;41.13;;;17.80;;
6626;SDS011;3349;49.830;8.748;2022-11-20T04:25:26;72.33;;;18.80;;
6626;SDS011;3349;49.830;8.748;2022-11-20T04:27:53;63.73;;;18.17;;
6626;SDS011;3349;49.830;8.748;2022-11-20T04:30:19;49.70;;;17.80;;
6626;SDS011;3349;49.830;8.748;2022-11-20T04:32:46;82.10;;;19.03;;
6626;SDS011;3349;49.830;8.748;2022-11-20T04:35:13;51.10;;;18.63;;
6626;SDS011;3349;49.830;8.748;2022-11-20T04:37:39;53.23;;;19.30;;
6626;SDS011;3349;49.830;8.748;2022-11-20T04:40:06;60.90;;;19.20;;
6626;SDS011;3349;49.830;8.748;2022-11-20T04:42:35;44.70;;;18.30;;
6626;SDS011;3349;49.830;8.748;2022-11-20T04:45:02;57.13;;;20.40;;
6626;SDS011;3349;49.830;8.748;2022-11-20T04:47:28;77.53;;;19.93;;
6626;SDS011;3349;49.830;8.748;2022-11-20T04:49:55;63.73;;;19.10;;
6626;SDS011;3349;49.830;8.748;2022-11-20T04:52:22;44.37;;;17.67;;
6626;SDS011;3349;49.830;8.748;2022-11-20T04:54:49;70.93;;;19.10;;
6626;SDS011;3349;49.830;8.748;2022-11-20T04:57:17;126.07;;;19.03;;
6626;SDS011;3349;49.830;8.748;2022-11-20T04:59:46;77.70;;;21.17;;
6626;SDS011;3349;49.830;8.748;2022-11-20T05:02:12;66.57;;;19.10;;
6626;SDS011;3349;49.830;8.748;2022-11-20T05:04:39;56.57;;;19.33;;
6626;SDS011;3349;49.830;8.748;2022-11-20T05:07:06;47.63;;;19.13;;
6626;SDS011;3349;49.830;8.748;2022-11-20T05:09:33;122.93;;;20.60;;
6626;SDS011;3349;49.830;8.748;2022-11-20T05:11:59;62.23;;;19.70;;
6626;SDS011;3349;49.830;8.748;2022-11-20T05:14:26;69.13;;;19.33;;
6626;SDS011;3349;49.830;8.748;2022-11-20T05:16:54;74.97;;;19.20;;
6626;SDS011;3349;49.830;8.748;2022-11-20T05:19:21;64.67;;;19.70;;
6626;SDS011;3349;49.830;8.748;2022-11-20T05:21:47;54.73;;;20.03;;
6626;SDS011;3349;49.830;8.748;2022-11-20T05:24:14;39.07;;;17.77;;
6626;SDS011;3349;49.830;8.748;2022-11-20T05:26:41;52.73;;;19.30;;
6626;SDS011;3349;49.830;8.748;2022-11-20T05:29:09;44.40;;;18.10;;
6626;SDS011;3349;49.830;8.748;2022-11-20T05:31:36;37.40;;;17.27;;
6626;SDS011;3349;49.830;8.748;2022-11-20T05:34:06;48.77;;;17.43;;
6626;SDS011;3349;49.830;8.748;2022-11-20T05:36:33;60.63;;;18.93;;
6626;SDS011;3349;49.830;8.748;2022-11-20T05:39:00;76.00;;;19.07;;
6626;SDS011;3349;49.830;8.748;2022-11-20T05:41:27;39.47;;;17.73;;
6626;SDS011;3349;49.830;8.748;2022-11-20T05:43:55;75.70;;;18.03;;
6626;SDS011;3349;49.830;8.748;2022-11-20T05:46:22;59.60;;;18.37;;
6626;SDS011;3349;49.830;8.748;2022-11-20T05:48:49;56.43;;;20.70;;
6626;SDS011;3349;49.830;8.748;2022-11-20T05:51:18;93.70;;;21.27;;
6626;SDS011;3349;49.830;8.748;2022-11-20T05:53:45;96.20;;;19.23;;
6626;SDS011;3349;49.830;8.748;2022-11-20T05:56:13;48.73;;;17.73;;
6626;SDS011;3349;49.830;8.748;2022-11-20T05:58:41;66.63;;;17.80;;
6626;SDS011;3349;49.830;8.748;2022-11-20T06:01:08;48.80;;;17.93;;
6626;SDS011;3349;49.830;8.748;2022-11-20T06:03:37;61.57;;;17.43;;
6626;SDS011;3349;49.830;8.748;2022-11-20T06:06:05;85.17;;;20.53;;
6626;SDS011;3349;49.830;8.748;2022-11-20T06:08:33;70.33;;;19.80;;
6626;SDS011;3349;49.830;8.748;2022-11-20T06:11:02;71.17;;;19.07;;
6626;SDS011;3349;49.830;8.748;2022-11-20T06:13:30;83.23;;;19.70;;
6626;SDS011;3349;49.830;8.748;2022-11-20T06:15:57;45.23;;;18.53;;
6626;SDS011;3349;49.830;8.748;2022-11-20T06:18:25;77.60;;;18.37;;
6626;SDS011;3349;49.830;8.748;2022-11-20T06:20:58;101.23;;;20.83;;
6626;SDS011;3349;49.830;8.748;2022-11-20T06:23:27;46.00;;;17.03;;
6626;SDS011;3349;49.830;8.748;2022-11-20T06:25:56;57.57;;;16.90;;
6626;SDS011;3349;49.830;8.748;2022-11-20T06:28:23;31.60;;;15.17;;
6626;SDS011;3349;49.830;8.748;2022-11-20T06:30:50;25.63;;;15.40;;
6626;SDS011;3349;49.830;8.748;2022-11-20T06:33:16;35.33;;;16.13;;
6626;SDS011;3349;49.830;8.748;2022-11-20T06:35:43;35.90;;;16.30;;
6626;SDS011;3349;49.830;8.748;2022-11-20T06:38:10;29.30;;;16.07;;
6626;SDS011;3349;49.830;8.748;2022-11-20T06:40:39;27.07;;;15.30;;
6626;SDS011;3349;49.830;8.748;2022-11-20T06:43:07;29.50;;;16.20;;
6626;SDS011;3349;49.830;8.748;2022-11-20T06:45:35;29.03;;;16.33;;
6626;SDS011;3349;49.830;8.748;2022-11-20T06:48:02;30.53;;;16.53;;
6626;SDS011;3349;49.830;8.748;2022-11-20T06:50:29;30.97;;;15.17;;
6626;SDS011;3349;49.830;8.748;2022-11-20T06:52:55;22.53;;;13.50;;
6626;SDS011;3349;49.830;8.748;2022-11-20T06:55:22;24.47;;;14.57;;
6626;SDS011;3349;49.830;8.748;2022-11-20T06:57:50;23.27;;;14.40;;
6626;SDS011;3349;49.830;8.748;2022-11-20T07:00:18;26.63;;;15.47;;
6626;SDS011;3349;49.830;8.748;2022-11-20T07:02:45;23.80;;;15.00;;
6626;SDS011;3349;49.830;8.748;2022-11-20T07:05:12;24.50;;;13.93;;
6626;SDS011;3349;49.830;8.748;2022-11-20T07:07:39;22.10;;;13.50;;
6626;SDS011;3349;49.830;8.748;2022-11-20T07:10:06;23.37;;;13.10;;
6626;SDS011;3349;49.830;8.748;2022-11-20T07:12:33;22.90;;;12.77;;
6626;SDS011;3349;49.830;8.748;2022-11-20T07:15:00;21.93;;;12.97;;
6626;SDS011;3349;49.830;8.748;2022-11-20T07:17:28;22.73;;;12.47;;
6626;SDS011;3349;49.830;8.748;2022-11-20T07:19:55;19.87;;;12.97;;
6626;SDS011;3349;49.830;8.748;2022-11-20T07:22:21;21.97;;;13.90;;
6626;SDS011;3349;49.830;8.748;2022-11-20T07:24:48;19.07;;;12.53;;
6626;SDS011;3349;49.830;8.748;2022-11-20T07:27:15;20.73;;;13.30;;
6626;SDS011;3349;49.830;8.748;2022-11-20T07:29:41;20.17;;;12.67;;
6626;SDS011;3349;49.830;8.748;2022-11-20T07:32:08;21.27;;;13.70;;
6626;SDS011;3349;49.830;8.748;2022-11-20T07:34:36;18.93;;;11.67;;
6626;SDS011;3349;49.830;8.748;2022-11-20T07:37:03;20.00;;;11.83;;
6626;SDS011;3349;49.830;8.748;2022-11-20T07:39:30;18.83;;;12.60;;
6626;SDS011;3349;49.830;8.748;2022-11-20T07:41:57;18.70;;;12.30;;
6626;SDS011;3349;49.830;8.748;2022-11-20T07:44:23;19.87;;;12.50;;
6626;SDS011;3349;49.830;8.748;2022-11-20T07:46:50;20.33;;;12.10;;
6626;SDS011;3349;49.830;8.748;2022-11-20T07:49:17;19.67;;;11.93;;
6626;SDS011;3349;49.830;8.748;2022-11-20T07:51:45;21.93;;;12.20;;
6626;SDS011;3349;49.830;8.748;2022-11-20T07:54:12;18.87;;;11.67;;
6626;SDS011;3349;49.830;8.748;2022-11-20T07:56:38;16.63;;;10.77;;
6626;SDS011;3349;49.830;8.748;2022-11-20T07:59:05;17.97;;;11.80;;
6626;SDS011;3349;49.830;8.748;2022-11-20T08:01:32;17.73;;;11.37;;
6626;SDS011;3349;49.830;8.748;2022-11-20T08:03:58;19.53;;;11.10;;
6626;SDS011;3349;49.830;8.748;2022-11-20T08:06:25;21.97;;;12.30;;
6626;SDS011;3349;49.830;8.748;2022-11-20T08:08:54;24.53;;;13.27;;
6626;SDS011;3349;49.830;8.748;2022-11-20T08:11:20;22.60;;;14.17;;
6626;SDS011;3349;49.830;8.748;2022-11-20T08:14:04;23.80;;;14.27;;
6626;SDS011;3349;49.830;8.748;2022-11-20T08:16:41;20.73;;;13.40;;
6626;SDS011;3349;49.830;8.748;2022-11-20T08:19:09;21.63;;;12.10;;
6626;SDS011;3349;49.830;8.748;2022-11-20T08:21:35;20.67;;;12.30;;
6626;SDS011;3349;49.830;8.748;2022-11-20T08:24:04;19.97;;;12.50;;
6626;SDS011;3349;49.830;8.748;2022-11-20T08:26:32;23.00;;;14.20;;
6626;SDS011;3349;49.830;8.748;2022-11-20T08:28:59;24.30;;;14.80;;
6626;SDS011;3349;49.830;8.748;2022-11-20T08:31:26;24.00;;;14.07;;
6626;SDS011;3349;49.830;8.748;2022-11-20T08:33:54;23.40;;;14.97;;
6626;SDS011;3349;49.830;8.748;2022-11-20T08:36:21;23.13;;;14.90;;
6626;SDS011;3349;49.830;8.748;2022-11-20T08:38:49;25.70;;;15.77;;
6626;SDS011;3349;49.830;8.748;2022-11-20T08:41:17;27.63;;;15.43;;
6626;SDS011;3349;49.830;8.748;2022-11-20T08:43:51;25.90;;;15.13;;
6626;SDS011;3349;49.830;8.748;2022-11-20T08:46:22;28.70;;;16.53;;
6626;SDS011;3349;49.830;8.748;2022-11-20T08:48:49;24.57;;;14.87;;
6626;SDS011;3349;49.830;8.748;2022-11-20T08:51:17;22.90;;;14.80;;
6626;SDS011;3349;49.830;8.748;2022-11-20T08:53:44;21.20;;;13.70;;
6626;SDS011;3349;49.830;8.748;2022-11-20T08:56:11;23.90;;;13.85;;
6626;SDS011;3349;49.830;8.748;2022-11-20T08:58:39;20.50;;;13.43;;
6626;SDS011;3349;49.830;8.748;2022-11-20T09:01:06;22.80;;;14.77;;
6626;SDS011;3349;49.830;8.748;2022-11-20T09:03:33;25.77;;;14.90;;
6626;SDS011;3349;49.830;8.748;2022-11-20T09:06:00;26.08;;;14.35;;
6626;SDS011;3349;49.830;8.748;2022-11-20T09:08:28;21.30;;;13.20;;
6626;SDS011;3349;49.830;8.748;2022-11-20T09:10:56;22.40;;;14.17;;
6626;SDS011;3349;49.830;8.748;2022-11-20T09:13:24;21.98;;;13.95;;
6626;SDS011;3349;49.830;8.748;2022-11-20T09:15:56;23.17;;;14.00;;
6626;SDS011;3349;49.830;8.748;2022-11-20T09:18:24;21.40;;;13.10;;
6626;SDS011;3349;49.830;8.748;2022-11-20T09:20:55;21.80;;;14.05;;
6626;SDS011;3349;49.830;8.748;2022-11-20T09:23:23;25.58;;;14.90;;
6626;SDS011;3349;49.830;8.748;2022-11-20T09:25:50;23.67;;;13.85;;
6626;SDS011;3349;49.830;8.748;2022-11-20T09:28:17;21.87;;;13.77;;
6626;SDS011;3349;49.830;8.748;2022-11-20T09:30:44;23.88;;;13.85;;
6626;SDS011;3349;49.830;8.748;2022-11-20T09:33:12;21.15;;;13.70;;
6626;SDS011;3349;49.830;8.748;2022-11-20T09:35:39;21.63;;;14.77;;
6626;SDS011;3349;49.830;8.748;2022-11-20T09:38:06;24.27;;;15.07;;
6626;SDS011;3349;49.830;8.748;2022-11-20T09:40:34;22.70;;;14.32;;
6626;SDS011;3349;49.830;8.748;2022-11-20T09:43:02;22.42;;;13.98;;
6626;SDS011;3349;49.830;8.748;2022-11-20T09:45:38;22.17;;;14.07;;
6626;SDS011;3349;49.830;8.748;2022-11-20T09:48:24;20.92;;;13.10;;
6626;SDS011;3349;49.830;8.748;2022-11-20T09:51:04;19.95;;;13.32;;
6626;SDS011;3349;49.830;8.748;2022-11-20T09:53:41;23.05;;;14.20;;
6626;SDS011;3349;49.830;8.748;2022-11-20T09:56:17;23.05;;;14.75;;
6626;SDS011;3349;49.830;8.748;2022-11-20T09:58:47;18.45;;;12.88;;
6626;SDS011;3349;49.830;8.748;2022-11-20T10:01:17;22.35;;;14.38;;
6626;SDS011;3349;49.830;8.748;2022-11-20T10:03:49;21.05;;;13.30;;
6626;SDS011;3349;49.830;8.748;2022-11-20T10:06:21;21.52;;;13.82;;
6626;SDS011;3349;49.830;8.748;2022-11-20T10:08:56;20.95;;;13.98;;
6626;SDS011;3349;49.830;8.748;2022-11-20T10:11:33;22.25;;;14.50;;
6626;SDS011;3349;49.830;8.748;2022-11-20T10:14:11;26.45;;;15.55;;
6626;SDS011;3349;49.830;8.748;2022-11-20T10:16:46;21.92;;;14.32;;
6626;SDS011;3349;49.830;8.748;2022-11-20T10:19:25;20.42;;;14.23;;
6626;SDS011;3349;49.830;8.748;2022-11-20T10:22:04;22.85;;;14.27;;
6626;SDS011;3349;49.830;8.748;2022-11-20T10:24:43;21.88;;;13.60;;
6626;SDS011;3349;49.830;8.748;2022-11-20T10:27:28;22.60;;;14.52;;
6626;SDS011;3349;49.830;8.748;2022-11-20T10:30:09;24.65;;;14.00;;
6626;SDS011;3349;49.830;8.748;2022-11-20T10:32:38;22.35;;;13.55;;
6626;SDS011;3349;49.830;8.748;2022-11-20T10:35:10;23.85;;;14.40;;
6626;SDS011;3349;49.830;8.748;2022-11-20T10:37:46;21.83;;;13.55;;
6626;SDS011;3349;49.830;8.748;2022-11-20T10:40:18;22.02;;;13.82;;
6626;SDS011;3349;49.830;8.748;2022-11-20T10:42:49;23.27;;;14.15;;
6626;SDS011;3349;49.830;8.748;2022-11-20T10:45:27;23.02;;;14.30;;
6626;SDS011;3349;49.830;8.748;2022-11-20T10:48:07;21.60;;;13.90;;
6626;SDS011;3349;49.830;8.748;2022-11-20T10:50:44;24.42;;;14.20;;
6626;SDS011;3349;49.830;8.748;2022-11-20T10:53:28;22.38;;;14.65;;
6626;SDS011;3349;49.830;8.748;2022-11-20T10:56:05;23.50;;;14.15;;
6626;SDS011;3349;49.830;8.748;2022-11-20T10:58:38;21.60;;;13.77;;
6626;SDS011;3349;49.830;8.748;2022-11-20T11:01:13;22.75;;;13.65;;
6626;SDS011;3349;49.830;8.748;2022-11-20T11:03:42;20.52;;;13.82;;
6626;SDS011;3349;49.830;8.748;2022-11-20T11:06:12;24.83;;;15.27;;
6626;SDS011;3349;49.830;8.748;2022-11-20T11:08:47;23.30;;;14.73;;
6626;SDS011;3349;49.830;8.748;2022-11-20T11:11:21;24.73;;;15.50;;
6626;SDS011;3349;49.830;8.748;2022-11-20T11:13:50;24.67;;;15.70;;
6626;SDS011;3349;49.830;8.748;2022-11-20T11:16:19;24.23;;;15.98;;
6626;SDS011;3349;49.830;8.748;2022-11-20T11:18:48;26.27;;;16.90;;
6626;SDS011;3349;49.830;8.748;2022-11-20T11:21:22;25.35;;;15.68;;
6626;SDS011;3349;49.830;8.748;2022-11-20T11:23:57;26.80;;;15.80;;
6626;SDS011;3349;49.830;8.748;2022-11-20T11:26:26;27.48;;;16.83;;
6626;SDS011;3349;49.830;8.748;2022-11-20T11:28:54;25.55;;;16.63;;
6626;SDS011;3349;49.830;8.748;2022-11-20T11:31:22;27.90;;;17.35;;
6626;SDS011;3349;49.830;8.748;2022-11-20T11:33:50;24.70;;;16.10;;
6626;SDS011;3349;49.830;8.748;2022-11-20T11:36:17;26.73;;;16.40;;
6626;SDS011;3349;49.830;8.748;2022-11-20T11:38:51;24.77;;;16.45;;
6626;SDS011;3349;49.830;8.748;2022-11-20T11:41:20;23.92;;;16.60;;
6626;SDS011;3349;49.830;8.748;2022-11-20T11:43:51;26.65;;;16.52;;
6626;SDS011;3349;49.830;8.748;2022-11-20T11:46:36;24.77;;;15.48;;
6626;SDS011;3349;49.830;8.748;2022-11-20T11:49:14;25.77;;;15.57;;
6626;SDS011;3349;49.830;8.748;2022-11-20T11:51:46;29.35;;;16.77;;
6626;SDS011;3349;49.830;8.748;2022-11-20T11:54:24;25.45;;;16.13;;
6626;SDS011;3349;49.830;8.748;2022-11-20T11:56:52;22.95;;;15.00;;
6626;SDS011;3349;49.830;8.748;2022-11-20T11:59:22;23.17;;;15.07;;
6626;SDS011;3349;49.830;8.748;2022-11-20T12:01:55;21.95;;;13.32;;
6626;SDS011;3349;49.830;8.748;2022-11-20T12:04:29;21.83;;;13.02;;
6626;SDS011;3349;49.830;8.748;2022-11-20T12:07:08;19.92;;;13.32;;
6626;SDS011;3349;49.830;8.748;2022-11-20T12:09:43;21.27;;;14.27;;
6626;SDS011;3349;49.830;8.748;2022-11-20T12:12:16;19.60;;;13.27;;
6626;SDS011;3349;49.830;8.748;2022-11-20T12:14:46;22.20;;;15.13;;
6626;SDS011;3349;49.830;8.748;2022-11-20T12:17:15;21.75;;;14.02;;
6626;SDS011;3349;49.830;8.748;2022-11-20T12:19:43;24.38;;;15.50;;
6626;SDS011;3349;49.830;8.748;2022-11-20T12:22:12;22.73;;;14.85;;
6626;SDS011;3349;49.830;8.748;2022-11-20T12:24:53;22.25;;;14.90;;
6626;SDS011;3349;49.830;8.748;2022-11-20T12:27:32;18.73;;;13.60;;
6626;SDS011;3349;49.830;8.748;2022-11-20T12:30:14;20.13;;;12.98;;
6626;SDS011;3349;49.830;8.748;2022-11-20T12:35:57;18.20;;;11.68;;
6626;SDS011;3349;49.830;8.748;2022-11-20T12:38:51;17.48;;;12.02;;
6626;SDS011;3349;49.830;8.748;2022-11-20T12:41:39;18.75;;;12.98;;
6626;SDS011;3349;49.830;8.748;2022-11-20T12:44:42;18.45;;;12.30;;
6626;SDS011;3349;49.830;8.748;2022-11-20T12:47:39;19.83;;;12.80;;
6626;SDS011;3349;49.830;8.748;2022-11-20T12:50:22;18.42;;;12.63;;
6626;SDS011;3349;49.830;8.748;2022-11-20T12:52:56;20.60;;;13.38;;
6626;SDS011;3349;49.830;8.748;2022-11-20T12:55:33;19.85;;;12.57;;
6626;SDS011;3349;49.830;8.748;2022-11-20T12:58:10;19.35;;;14.07;;
6626;SDS011;3349;49.830;8.748;2022-11-20T13:00:43;20.25;;;14.10;;
6626;SDS011;3349;49.830;8.748;2022-11-20T13:03:24;17.45;;;11.57;;
6626;SDS011;3349;49.830;8.748;2022-11-20T13:06:10;15.55;;;10.93;;
6626;SDS011;3349;49.830;8.748;2022-11-20T13:08:41;15.88;;;11.43;;
6626;SDS011;3349;49.830;8.748;2022-11-20T13:11:13;16.83;;;11.57;;
6626;SDS011;3349;49.830;8.748;2022-11-20T13:13:47;15.73;;;11.20;;
6626;SDS011;3349;49.830;8.748;2022-11-20T13:16:30;15.63;;;11.73;;
6626;SDS011;3349;49.830;8.748;2022-11-20T13:19:02;18.17;;;12.82;;
6626;SDS011;3349;49.830;8.748;2022-11-20T13:21:37;14.73;;;10.40;;
6626;SDS011;3349;49.830;8.748;2022-11-20T13:24:05;16.33;;;11.75;;
6626;SDS011;3349;49.830;8.748;2022-11-20T13:26:33;14.75;;;10.27;;
6626;SDS011;3349;49.830;8.748;2022-11-20T13:29:03;16.92;;;10.65;;
6626;SDS011;3349;49.830;8.748;2022-11-20T13:31:35;13.20;;;9.43;;
6626;SDS011;3349;49.830;8.748;2022-11-20T13:34:05;15.32;;;11.38;;
6626;SDS011;3349;49.830;8.748;2022-11-20T13:36:33;16.60;;;12.23;;
6626;SDS011;3349;49.830;8.748;2022-11-20T13:39:01;29.25;;;20.92;;
6626;SDS011;3349;49.830;8.748;2022-11-20T13:41:29;19.45;;;14.70;;
6626;SDS011;3349;49.830;8.748;2022-11-20T13:44:04;16.95;;;12.20;;
6626;SDS011;3349;49.830;8.748;2022-11-20T13:46:37;13.73;;;9.90;;
6626;SDS011;3349;49.830;8.748;2022-11-20T13:49:09;14.45;;;10.48;;
6626;SDS011;3349;49.830;8.748;2022-11-20T13:51:43;13.70;;;10.75;;
6626;SDS011;3349;49.830;8.748;2022-11-20T14:00:20;14.60;;;10.25;;
6626;SDS011;3349;49.830;8.748;2022-11-20T14:02:50;18.92;;;13.50;;
6626;SDS011;3349;49.830;8.748;2022-11-20T14:05:27;18.60;;;12.88;;
6626;SDS011;3349;49.830;8.748;2022-11-20T14:07:56;15.68;;;10.50;;
6626;SDS011;3349;49.830;8.748;2022-11-20T14:10:25;14.88;;;9.82;;
6626;SDS011;3349;49.830;8.748;2022-11-20T14:12:52;17.13;;;10.65;;
6626;SDS011;3349;49.830;8.748;2022-11-20T14:15:25;15.57;;;9.98;;
6626;SDS011;3349;49.830;8.748;2022-11-20T14:17:54;14.60;;;10.20;;
6626;SDS011;3349;49.830;8.748;2022-11-20T14:20:22;15.50;;;10.75;;
6626;SDS011;3349;49.830;8.748;2022-11-20T14:22:52;15.82;;;10.55;;
6626;SDS011;3349;49.830;8.748;2022-11-20T14:25:20;20.17;;;11.65;;
6626;SDS011;3349;49.830;8.748;2022-11-20T14:27:52;14.57;;;10.40;;
6626;SDS011;3349;49.830;8.748;2022-11-20T14:30:20;13.25;;;10.30;;
6626;SDS011;3349;49.830;8.748;2022-11-20T14:32:50;12.70;;;10.18;;
6626;SDS011;3349;49.830;8.748;2022-11-20T14:35:20;16.25;;;10.55;;
6626;SDS011;3349;49.830;8.748;2022-11-20T14:37:49;14.27;;;10.38;;
6626;SDS011;3349;49.830;8.748;2022-11-20T14:40:23;15.43;;;11.60;;
6626;SDS011;3349;49.830;8.748;2022-11-20T14:42:52;15.32;;;10.35;;
6626;SDS011;3349;49.830;8.748;2022-11-20T14:45:20;13.50;;;10.55;;
6626;SDS011;3349;49.830;8.748;2022-11-20T14:47:48;18.25;;;11.40;;
6626;SDS011;3349;49.830;8.748;2022-11-20T14:50:18;14.68;;;8.90;;
6626;SDS011;3349;49.830;8.748;2022-11-20T14:52:50;13.73;;;9.75;;
6626;SDS011;3349;49.830;8.748;2022-11-20T14:55:27;13.90;;;9.75;;
6626;SDS011;3349;49.830;8.748;2022-11-20T14:57:57;9.23;;;5.80;;
6626;SDS011;3349;49.830;8.748;2022-11-20T15:00:27;12.57;;;6.72;;
6626;SDS011;3349;49.830;8.748;2022-11-20T15:02:56;12.65;;;7.53;;
6626;SDS011;3349;49.830;8.748;2022-11-20T15:05:25;13.20;;;7.13;;
6626;SDS011;3349;49.830;8.748;2022-11-20T15:08:10;9.10;;;6.47;;
6626;SDS011;3349;49.830;8.748;2022-11-20T15:10:45;10.23;;;6.55;;
6626;SDS011;3349;49.830;8.748;2022-11-20T15:13:14;10.57;;;5.68;;